Time;durP1;ratioP1;P1;durP2;ratioP2;P2;SDS_P1;SDS_P2;PMS_P1;PMS_P2;Temp;Humidity;BMP_temperature;BMP_pressure;BME280_temperature;BME280_humidity;BME280_pressure;Samples;Min_cycle;Max_cycle;Signal;HPM_P1;HPM_P2
2024/03/03 00:07:22;;;;;;;44.50;32.10;;;;;;;5.90;100.00;98924.88;451890;1254;139400;-59
2024/03/03 00:17:28;;;;;;;45.30;34.70;;;;;;;5.82;100.00;98921.33;451984;1255;139343;-60
2024/03/03 00:27:34;;;;;;;44.80;30.90;;;;;;;5.75;100.00;98915.98;451979;1254;140333;-61
2024/03/03 00:37:40;;;;;;;46.20;32.10;;;;;;;5.68;100.00;98904.73;452033;1253;139500;-60
2024/03/03 00:47:48;;;;;;;46.90;32.30;;;;;;;5.58;100.00;98908.70;452009;1254;139437;-63
2024/03/03 00:57:54;;;;;;;42.00;33.50;;;;;;;5.51;100.00;98903.38;451969;1256;139504;-64
2024/03/03 01:08:03;;;;;;;41.30;31.80;;;;;;;5.48;100.00;98898.52;451867;1255;139991;-63
2024/03/03 01:18:09;;;;;;;38.80;29.90;;;;;;;5.45;100.00;98901.92;451412;1255;140628;-63
2024/03/03 01:28:15;;;;;;;47.60;32.70;;;;;;;5.45;100.00;98893.09;451566;1254;139801;-59
2024/03/03 01:38:21;;;;;;;44.30;29.00;;;;;;;5.45;100.00;98882.02;451403;1257;140936;-60
2024/03/03 01:48:28;;;;;;;42.30;33.30;;;;;;;5.43;100.00;98884.16;451703;1254;139103;-59
2024/03/03 01:58:34;;;;;;;41.10;33.20;;;;;;;5.42;100.00;98878.32;451673;1256;140486;-59
2024/03/03 02:08:41;;;;;;;44.70;33.10;;;;;;;5.41;100.00;98870.05;451336;1258;139281;-60
2024/03/03 02:18:46;;;;;;;;;;;;;;;5.43;100.00;98872.04;451749;1254;139781;-61
2024/03/03 02:28:54;;;;;;;44.70;31.80;;;;;;;5.42;100.00;98867.55;451551;1254;125645;-59
2024/03/03 02:38:59;;;;;;;42.60;30.20;;;;;;;5.43;100.00;98863.89;451536;1254;141455;-64
2024/03/03 02:49:07;;;;;;;39.00;29.30;;;;;;;5.41;100.00;98861.04;451493;1254;139613;-64
2024/03/03 02:59:14;;;;;;;43.20;32.40;;;;;;;5.41;100.00;98857.70;451483;1254;139914;-64
2024/03/03 03:09:20;;;;;;;43.50;30.20;;;;;;;5.40;100.00;98859.19;451578;1254;141376;-63
2024/03/03 03:19:30;;;;;;;50.00;34.00;;;;;;;5.39;100.00;98857.00;451595;1254;139506;-64
2024/03/03 03:29:36;;;;;;;43.20;31.70;;;;;;;5.37;100.00;98858.80;451504;1254;140327;-65
2024/03/03 03:39:42;;;;;;;44.50;32.50;;;;;;;5.35;100.00;98857.56;451435;1254;139336;-61
2024/03/03 03:49:48;;;;;;;43.40;30.40;;;;;;;5.32;100.00;98854.21;451498;1254;139727;-60
2024/03/03 03:59:54;;;;;;;40.80;28.00;;;;;;;5.31;100.00;98859.81;451581;1254;139227;-65
2024/03/03 04:10:00;;;;;;;48.30;30.00;;;;;;;5.27;100.00;98857.44;451600;1254;139833;-64
2024/03/03 04:20:08;;;;;;;35.90;27.20;;;;;;;5.21;100.00;98855.54;451543;1254;140656;-59
2024/03/03 04:30:15;;;;;;;36.70;27.90;;;;;;;5.14;100.00;98852.92;451479;1254;139273;-59
2024/03/03 04:40:21;;;;;;;44.50;29.60;;;;;;;5.11;100.00;98854.48;451446;1254;139757;-57
2024/03/03 04:50:27;;;;;;;35.80;28.40;;;;;;;5.08;100.00;98852.23;451492;1254;139612;-59
2024/03/03 05:00:35;;;;;;;37.90;26.70;;;;;;;5.01;100.00;98848.08;451561;1254;139813;-58
2024/03/03 05:10:42;;;;;;;33.60;27.30;;;;;;;4.93;100.00;98850.75;451485;1253;139788;-59
2024/03/03 05:20:48;;;;;;;32.10;24.30;;;;;;;4.86;100.00;98856.65;451412;1254;139744;-63
2024/03/03 05:30:54;;;;;;;40.80;29.20;;;;;;;4.80;100.00;98867.86;451524;1254;139787;-63
2024/03/03 05:41:00;;;;;;;35.10;26.90;;;;;;;4.81;100.00;98871.14;451365;1254;140204;-63
2024/03/03 05:51:08;;;;;;;37.40;27.20;;;;;;;4.89;100.00;98876.46;451384;1254;140634;-64
2024/03/03 06:01:14;;;;;;;31.20;24.60;;;;;;;5.06;100.00;98880.95;451683;1254;139789;-63
2024/03/03 06:11:21;;;;;;;34.00;24.00;;;;;;;5.35;100.00;98884.95;451514;1254;140575;-61
2024/03/03 06:21:27;;;;;;;29.40;23.40;;;;;;;6.34;100.00;98888.14;451372;1254;139936;-61
2024/03/03 06:31:33;;;;;;;30.80;23.40;;;;;;;8.59;100.00;98882.61;451384;1254;139415;-61
2024/03/03 06:41:39;;;;;;;27.50;19.30;;;;;;;11.22;100.00;98879.40;447315;1253;5118163;-60
2024/03/03 06:51:48;;;;;;;23.50;18.80;;;;;;;13.60;100.00;98878.66;451387;1254;140775;-59
2024/03/03 07:01:54;;;;;;;20.40;18.30;;;;;;;15.84;100.00;98879.73;451590;1254;139269;-58
2024/03/03 07:12:01;;;;;;;18.70;16.80;;;;;;;17.77;100.00;98876.64;451376;1253;139715;-64
2024/03/03 07:22:07;;;;;;;18.30;16.30;;;;;;;19.32;99.45;98875.52;451417;1252;139004;-64
2024/03/03 07:32:15;;;;;;;18.90;16.80;;;;;;;20.64;96.07;98875.41;451490;1253;139258;-60
2024/03/03 07:42:22;;;;;;;19.80;17.70;;;;;;;22.41;90.95;98868.91;451514;1253;138773;-59
2024/03/03 07:52:28;;;;;;;19.40;17.30;;;;;;;23.86;86.13;98870.66;451401;1253;138695;-68
2024/03/03 08:02:36;;;;;;;18.50;16.70;;;;;;;26.00;83.03;98868.30;451438;1254;139540;-68
2024/03/03 08:12:43;;;;;;;21.00;18.80;;;;;;;27.26;76.65;98865.23;451551;1254;138735;-68
2024/03/03 08:22:49;;;;;;;18.70;16.80;;;;;;;28.91;72.86;98868.18;451535;1253;139387;-69
2024/03/03 08:32:57;;;;;;;19.20;17.20;;;;;;;30.52;67.66;98869.54;451431;1254;138853;-69
2024/03/03 08:43:03;;;;;;;17.60;15.80;;;;;;;31.33;57.38;98863.84;451703;1254;140000;-69
2024/03/03 08:53:10;;;;;;;19.40;17.30;;;;;;;32.35;53.41;98860.24;451517;1253;139461;-70
2024/03/03 09:03:16;;;;;;;16.50;15.00;;;;;;;33.31;51.71;98860.15;451519;1254;139287;-69
2024/03/03 09:13:22;;;;;;;17.00;15.50;;;;;;;33.96;47.28;98859.42;451654;1254;138953;-69
2024/03/03 09:23:29;;;;;;;18.00;16.20;;;;;;;31.81;42.07;98853.71;451531;1254;139740;-59
2024/03/03 09:33:38;;;;;;;16.30;14.70;;;;;;;27.06;40.98;98851.06;451491;1254;140052;-61
2024/03/03 09:43:50;;;;;;;17.70;15.70;;;;;;;22.45;43.40;98854.83;451614;1252;139404;-60
2024/03/03 09:53:56;;;;;;;20.40;18.00;;;;;;;18.94;46.12;98854.64;451543;1254;140218;-60
2024/03/03 10:04:05;;;;;;;21.20;17.40;;;;;;;16.94;49.37;98867.64;451488;1254;140949;-59
2024/03/03 10:14:14;;;;;;;17.90;14.30;;;;;;;15.69;52.03;98862.99;452039;1252;139121;-60
2024/03/03 10:24:25;;;;;;;19.40;14.70;;;;;;;14.85;54.03;98861.56;451973;1252;139324;-68
2024/03/03 10:34:33;;;;;;;19.70;15.80;;;;;;;14.34;55.74;98856.41;451990;1252;139528;-68
2024/03/03 10:44:40;;;;;;;16.40;14.20;;;;;;;13.91;57.31;98850.53;451764;1252;139276;-61
2024/03/03 10:54:46;;;;;;;14.00;11.60;;;;;;;13.57;58.30;98842.66;451937;1252;139294;-60
2024/03/03 11:04:52;;;;;;;18.70;12.70;;;;;;;13.30;59.30;98833.69;451693;1252;138724;-61
2024/03/03 11:15:04;;;;;;;12.20;9.10;;;;;;;13.18;60.21;98817.84;451460;1254;138868;-65
2024/03/03 11:25:22;;;;;;;12.40;10.10;;;;;;;13.23;60.72;98803.02;451590;1254;139254;-66
2024/03/03 11:35:29;;;;;;;16.20;10.70;;;;;;;13.27;60.97;98795.27;451489;1254;139272;-67
2024/03/03 11:45:47;;;;;;;8.50;6.70;;;;;;;13.27;61.10;98785.59;451697;1254;139501;-67
2024/03/03 11:55:56;;;;;;;8.60;7.70;;;;;;;13.28;61.28;98774.45;451656;1254;138423;-58
2024/03/03 12:06:04;;;;;;;9.70;7.20;;;;;;;13.38;61.67;98767.81;451369;1254;138383;-58
2024/03/03 12:16:10;;;;;;;10.20;6.90;;;;;;;13.40;61.82;98759.75;451531;1253;138851;-68
2024/03/03 12:26:18;;;;;;;10.20;8.30;;;;;;;13.35;61.84;98754.19;451609;1254;138593;-64
2024/03/03 12:36:24;;;;;;;10.00;8.40;;;;;;;13.30;62.26;98747.07;451724;1254;138772;-58
2024/03/03 12:46:33;;;;;;;11.90;9.50;;;;;;;13.36;62.80;98738.31;451650;1254;140248;-56
2024/03/03 12:56:39;;;;;;;12.90;7.90;;;;;;;13.52;63.33;98726.12;451743;1253;139837;-60
2024/03/03 13:06:45;;;;;;;10.70;9.40;;;;;;;13.55;63.30;98715.89;451586;1254;139615;-59
2024/03/03 13:17:06;;;;;;;11.50;9.20;;;;;;;13.47;63.56;98697.80;451561;1255;138597;-60
2024/03/03 13:27:14;;;;;;;12.80;8.60;;;;;;;13.51;64.12;98685.64;451550;1254;139328;-61
2024/03/03 13:37:20;;;;;;;12.50;11.10;;;;;;;13.63;64.28;98670.65;451674;1253;139058;-61
2024/03/03 13:47:27;;;;;;;13.10;11.00;;;;;;;13.66;64.55;98677.96;451637;1253;139482;-60
2024/03/03 13:57:35;;;;;;;17.60;13.10;;;;;;;13.55;64.88;98679.80;451515;1254;139367;-65
2024/03/03 14:07:41;;;;;;;15.90;12.70;;;;;;;13.51;65.62;98673.32;451678;1254;138620;-57
2024/03/03 14:17:51;;;;;;;19.60;13.00;;;;;;;13.45;66.24;98678.64;451574;1254;138873;-57
2024/03/03 14:27:57;;;;;;;17.30;14.00;;;;;;;13.19;66.44;98674.25;451709;1253;138645;-56
2024/03/03 14:38:16;;;;;;;23.80;16.00;;;;;;;12.92;67.08;98676.05;451540;1254;139155;-53
2024/03/03 14:48:25;;;;;;;18.60;13.70;;;;;;;12.66;67.90;98677.08;451536;1254;139384;-60
2024/03/03 14:58:31;;;;;;;19.30;15.40;;;;;;;12.47;68.44;98676.96;451530;1253;139807;-60
2024/03/03 15:08:38;;;;;;;20.90;14.20;;;;;;;12.31;69.04;98686.77;451558;1254;138685;-53
2024/03/03 15:18:44;;;;;;;16.40;14.40;;;;;;;12.15;69.32;98683.91;451726;1254;139976;-55
2024/03/03 15:28:52;;;;;;;17.60;14.10;;;;;;;11.96;69.95;98684.92;451593;1254;139407;-52
2024/03/03 15:38:58;;;;;;;17.90;15.20;;;;;;;11.69;70.23;98695.91;451525;1255;139683;-51
2024/03/03 15:49:05;;;;;;;20.00;14.70;;;;;;;11.45;71.00;98693.86;451709;1255;139963;-52
2024/03/03 15:59:11;;;;;;;17.80;12.80;;;;;;;11.23;71.67;98691.28;451557;1254;139396;-51
2024/03/03 16:09:17;;;;;;;17.60;14.30;;;;;;;10.99;72.38;98693.49;451551;1254;139769;-48
2024/03/03 16:19:23;;;;;;;18.20;14.10;;;;;;;10.74;73.16;98691.06;451436;1254;140151;-53
2024/03/03 16:29:32;;;;;;;25.00;17.50;;;;;;;10.47;73.94;98693.92;451396;1255;139648;-60
2024/03/03 16:39:38;;;;;;;23.20;17.20;;;;;;;10.19;74.98;98697.23;451319;1254;139537;-60
2024/03/03 16:49:44;;;;;;;20.50;15.20;;;;;;;9.95;75.96;98699.02;451412;1257;139606;-59
2024/03/03 16:59:50;;;;;;;23.60;17.30;;;;;;;9.74;76.83;98705.13;451292;1256;139597;-58
2024/03/03 17:09:56;;;;;;;23.10;17.90;;;;;;;9.54;77.60;98708.52;451326;1255;139863;-60
2024/03/03 17:20:04;;;;;;;22.60;19.00;;;;;;;9.36;78.57;98707.88;451274;1254;139583;-62
2024/03/03 17:30:11;;;;;;;25.60;18.70;;;;;;;9.18;79.34;98707.11;451367;1254;139659;-63
2024/03/03 17:40:17;;;;;;;26.80;19.50;;;;;;;9.02;80.39;98711.77;451466;1254;140236;-62
2024/03/03 17:50:23;;;;;;;24.70;19.90;;;;;;;8.89;81.22;98710.23;451311;1253;139547;-58
2024/03/03 18:00:29;;;;;;;24.40;18.10;;;;;;;8.74;81.48;98710.23;451440;1257;139338;-50
2024/03/03 18:10:35;;;;;;;25.10;21.00;;;;;;;8.62;82.31;98713.69;451735;1254;140199;-51
2024/03/03 18:20:41;;;;;;;27.20;21.10;;;;;;;8.51;82.93;98712.17;451661;1254;140478;-48
2024/03/03 19:43:40;;;;;;;29.30;21.30;;;;;;;7.64;88.41;98738.34;440124;1264;61991;-58
2024/03/03 19:53:44;;;;;;;31.30;21.30;;;;;;;7.62;88.99;98740.20;444622;1244;138254;-58
2024/03/03 20:03:47;;;;;;;29.20;20.90;;;;;;;7.63;89.43;98743.77;445326;1244;139458;-57
2024/03/03 20:13:54;;;;;;;27.40;23.50;;;;;;;7.62;89.96;98740.92;447522;1244;138002;-59
2024/03/03 20:23:59;;;;;;;31.90;23.10;;;;;;;7.57;90.28;98740.38;445830;1247;139252;-58
2024/03/03 20:34:03;;;;;;;32.50;22.30;;;;;;;7.53;90.52;98750.02;446705;1243;138671;-49
2024/03/03 20:44:07;;;;;;;29.90;23.60;;;;;;;7.47;90.76;98749.67;446542;1238;139308;-50
2024/03/03 20:54:10;;;;;;;30.20;24.50;;;;;;;7.40;91.02;98746.14;446592;1242;138535;-59
2024/03/03 21:04:15;;;;;;;32.80;24.70;;;;;;;7.32;91.50;98743.36;446609;1240;138672;-58
2024/03/03 21:14:20;;;;;;;32.40;23.70;;;;;;;7.23;91.72;98750.83;446676;1242;138389;-57
2024/03/03 21:24:24;;;;;;;31.30;25.30;;;;;;;7.16;92.41;98746.80;446726;1242;139133;-59
2024/03/03 21:34:28;;;;;;;33.60;25.40;;;;;;;7.08;92.93;98740.81;446418;1242;138540;-58
2024/03/03 21:44:33;;;;;;;42.70;27.80;;;;;;;7.01;93.26;98737.77;446461;1239;138444;-59
2024/03/03 21:54:37;;;;;;;32.30;27.30;;;;;;;6.95;93.40;98747.03;446433;1242;138672;-60
2024/03/03 22:04:42;;;;;;;37.70;28.60;;;;;;;6.91;93.62;98744.71;446280;1242;138892;-62
2024/03/03 22:14:45;;;;;;;37.10;29.00;;;;;;;6.84;93.79;98751.20;446482;1242;138436;-58
2024/03/03 22:24:49;;;;;;;40.50;30.30;;;;;;;6.77;93.77;98746.25;446996;1241;138832;-57
2024/03/03 22:34:52;;;;;;;38.20;30.60;;;;;;;6.68;93.79;98752.84;446852;1240;138390;-59
2024/03/03 22:44:58;;;;;;;36.50;27.70;;;;;;;6.58;93.76;98754.84;446534;1242;138362;-61
2024/03/03 22:55:02;;;;;;;40.40;29.80;;;;;;;6.47;93.66;98745.42;446250;1238;138427;-60
2024/03/03 23:05:06;;;;;;;38.20;28.50;;;;;;;6.36;93.45;98738.97;446445;1238;139194;-50
2024/03/03 23:15:11;;;;;;;34.90;26.00;;;;;;;6.25;93.30;98728.81;448372;1240;139642;-50
2024/03/03 23:25:16;;;;;;;34.90;26.60;;;;;;;6.16;93.39;98730.58;448700;1242;138509;-48
2024/03/03 23:35:21;;;;;;;35.40;26.00;;;;;;;6.05;92.94;98718.89;447621;1240;139239;-49
2024/03/03 23:45:24;;;;;;;37.00;25.90;;;;;;;5.90;92.69;98726.67;446670;1238;138599;-63
2024/03/03 23:55:28;;;;;;;33.50;27.60;;;;;;;5.74;92.30;98719.79;446385;1239;139077;-63
